sensor_id;sensor_type;location;lat;lon;timestamp;P1;durP1;ratioP1;P2;durP2;ratioP2
52878;SDS011;38747;53.140;6.498;2023-03-01T00:01:13;16.13;;;8.18;;
52878;SDS011;38747;53.140;6.498;2023-03-01T00:03:40;17.23;;;8.60;;
52878;SDS011;38747;53.140;6.498;2023-03-01T00:06:07;15.57;;;8.60;;
52878;SDS011;38747;53.140;6.498;2023-03-01T00:08:33;17.90;;;9.23;;
52878;SDS011;38747;53.140;6.498;2023-03-01T00:11:18;16.52;;;9.45;;
52878;SDS011;38747;53.140;6.498;2023-03-01T00:13:47;17.67;;;8.95;;
52878;SDS011;38747;53.140;6.498;2023-03-01T00:16:15;20.15;;;9.77;;
52878;SDS011;38747;53.140;6.498;2023-03-01T00:18:43;16.05;;;8.93;;
52878;SDS011;38747;53.140;6.498;2023-03-01T00:21:09;18.77;;;9.47;;
52878;SDS011;38747;53.140;6.498;2023-03-01T00:23:35;19.05;;;10.15;;
52878;SDS011;38747;53.140;6.498;2023-03-01T00:26:02;19.40;;;9.30;;
52878;SDS011;38747;53.140;6.498;2023-03-01T00:28:31;20.77;;;10.40;;
52878;SDS011;38747;53.140;6.498;2023-03-01T00:31:01;20.03;;;9.70;;
52878;SDS011;38747;53.140;6.498;2023-03-01T00:33:28;18.10;;;9.38;;
52878;SDS011;38747;53.140;6.498;2023-03-01T00:35:54;17.13;;;9.17;;
52878;SDS011;38747;53.140;6.498;2023-03-01T00:38:19;17.70;;;9.45;;
52878;SDS011;38747;53.140;6.498;2023-03-01T00:40:45;19.10;;;9.03;;
52878;SDS011;38747;53.140;6.498;2023-03-01T00:43:10;17.25;;;9.38;;
52878;SDS011;38747;53.140;6.498;2023-03-01T00:45:36;18.77;;;9.50;;
52878;SDS011;38747;53.140;6.498;2023-03-01T00:48:02;18.53;;;9.47;;
52878;SDS011;38747;53.140;6.498;2023-03-01T00:50:27;17.40;;;9.07;;
52878;SDS011;38747;53.140;6.498;2023-03-01T00:52:54;17.83;;;9.30;;
52878;SDS011;38747;53.140;6.498;2023-03-01T00:55:20;23.00;;;9.95;;
52878;SDS011;38747;53.140;6.498;2023-03-01T00:57:46;28.60;;;13.13;;
52878;SDS011;38747;53.140;6.498;2023-03-01T01:00:12;27.23;;;12.13;;
52878;SDS011;38747;53.140;6.498;2023-03-01T01:02:38;45.80;;;13.85;;
52878;SDS011;38747;53.140;6.498;2023-03-01T01:05:04;30.13;;;13.25;;
52878;SDS011;38747;53.140;6.498;2023-03-01T01:07:30;37.23;;;13.70;;
52878;SDS011;38747;53.140;6.498;2023-03-01T01:09:55;46.85;;;13.00;;
52878;SDS011;38747;53.140;6.498;2023-03-01T01:12:21;128.23;;;14.90;;
52878;SDS011;38747;53.140;6.498;2023-03-01T01:14:47;120.53;;;16.33;;
52878;SDS011;38747;53.140;6.498;2023-03-01T01:17:13;201.32;;;19.75;;
52878;SDS011;38747;53.140;6.498;2023-03-01T01:19:38;245.17;;;21.20;;
52878;SDS011;38747;53.140;6.498;2023-03-01T01:22:04;285.20;;;23.40;;
52878;SDS011;38747;53.140;6.498;2023-03-01T01:24:29;184.57;;;18.52;;
52878;SDS011;38747;53.140;6.498;2023-03-01T01:26:55;127.73;;;14.97;;
52878;SDS011;38747;53.140;6.498;2023-03-01T01:29:21;105.63;;;15.25;;
52878;SDS011;38747;53.140;6.498;2023-03-01T01:31:46;91.30;;;14.17;;
52878;SDS011;38747;53.140;6.498;2023-03-01T01:34:17;26.42;;;11.68;;
52878;SDS011;38747;53.140;6.498;2023-03-01T01:36:48;27.38;;;12.75;;
52878;SDS011;38747;53.140;6.498;2023-03-01T01:39:15;28.73;;;12.90;;
52878;SDS011;38747;53.140;6.498;2023-03-01T01:41:41;26.85;;;12.68;;
52878;SDS011;38747;53.140;6.498;2023-03-01T01:46:47;31.05;;;13.02;;
52878;SDS011;38747;53.140;6.498;2023-03-01T01:57:45;104.75;;;15.23;;
52878;SDS011;38747;53.140;6.498;2023-03-01T02:00:15;162.57;;;16.40;;
52878;SDS011;38747;53.140;6.498;2023-03-01T02:02:44;83.87;;;15.23;;
52878;SDS011;38747;53.140;6.498;2023-03-01T02:05:17;88.20;;;14.45;;
52878;SDS011;38747;53.140;6.498;2023-03-01T02:07:49;59.80;;;12.77;;
52878;SDS011;38747;53.140;6.498;2023-03-01T02:10:15;126.32;;;15.85;;
52878;SDS011;38747;53.140;6.498;2023-03-01T02:12:41;166.02;;;19.20;;
52878;SDS011;38747;53.140;6.498;2023-03-01T02:15:07;128.07;;;16.07;;
52878;SDS011;38747;53.140;6.498;2023-03-01T02:17:36;96.57;;;15.07;;
52878;SDS011;38747;53.140;6.498;2023-03-01T02:23:10;139.35;;;15.07;;
52878;SDS011;38747;53.140;6.498;2023-03-01T02:25:39;110.63;;;13.23;;
52878;SDS011;38747;53.140;6.498;2023-03-01T02:30:42;139.65;;;14.10;;
52878;SDS011;38747;53.140;6.498;2023-03-01T02:33:29;139.00;;;13.32;;
52878;SDS011;38747;53.140;6.498;2023-03-01T02:35:59;122.18;;;15.13;;
52878;SDS011;38747;53.140;6.498;2023-03-01T02:38:26;169.57;;;12.47;;
52878;SDS011;38747;53.140;6.498;2023-03-01T02:40:53;116.70;;;11.30;;
52878;SDS011;38747;53.140;6.498;2023-03-01T02:43:22;96.72;;;12.50;;
52878;SDS011;38747;53.140;6.498;2023-03-01T02:45:52;113.55;;;11.27;;
52878;SDS011;38747;53.140;6.498;2023-03-01T02:48:22;144.85;;;13.10;;
52878;SDS011;38747;53.140;6.498;2023-03-01T02:53:32;92.68;;;11.45;;
52878;SDS011;38747;53.140;6.498;2023-03-01T02:56:18;86.63;;;10.45;;
52878;SDS011;38747;53.140;6.498;2023-03-01T02:58:44;105.87;;;12.10;;
52878;SDS011;38747;53.140;6.498;2023-03-01T03:01:12;96.30;;;10.53;;
52878;SDS011;38747;53.140;6.498;2023-03-01T03:03:40;71.07;;;10.75;;
52878;SDS011;38747;53.140;6.498;2023-03-01T03:06:06;71.95;;;10.95;;
52878;SDS011;38747;53.140;6.498;2023-03-01T03:08:32;81.50;;;10.20;;
52878;SDS011;38747;53.140;6.498;2023-03-01T03:10:57;83.87;;;11.03;;
52878;SDS011;38747;53.140;6.498;2023-03-01T03:13:23;96.53;;;10.75;;
52878;SDS011;38747;53.140;6.498;2023-03-01T03:15:53;167.97;;;11.90;;
52878;SDS011;38747;53.140;6.498;2023-03-01T03:18:20;49.08;;;8.75;;
52878;SDS011;38747;53.140;6.498;2023-03-01T03:20:46;55.35;;;8.80;;
52878;SDS011;38747;53.140;6.498;2023-03-01T03:23:12;101.63;;;9.23;;
52878;SDS011;38747;53.140;6.498;2023-03-01T03:25:38;121.75;;;9.90;;
52878;SDS011;38747;53.140;6.498;2023-03-01T03:28:05;127.10;;;10.47;;
52878;SDS011;38747;53.140;6.498;2023-03-01T03:30:35;89.38;;;8.68;;
52878;SDS011;38747;53.140;6.498;2023-03-01T03:33:04;51.00;;;8.50;;
52878;SDS011;38747;53.140;6.498;2023-03-01T03:35:32;29.52;;;7.60;;
52878;SDS011;38747;53.140;6.498;2023-03-01T03:38:04;26.10;;;7.77;;
52878;SDS011;38747;53.140;6.498;2023-03-01T03:40:35;20.98;;;7.10;;
52878;SDS011;38747;53.140;6.498;2023-03-01T03:43:04;16.55;;;7.75;;
52878;SDS011;38747;53.140;6.498;2023-03-01T03:45:32;15.77;;;7.82;;
52878;SDS011;38747;53.140;6.498;2023-03-01T03:48:00;14.93;;;7.88;;
52878;SDS011;38747;53.140;6.498;2023-03-01T03:50:32;20.90;;;8.23;;
52878;SDS011;38747;53.140;6.498;2023-03-01T03:53:02;52.50;;;9.65;;
52878;SDS011;38747;53.140;6.498;2023-03-01T03:55:31;76.63;;;12.18;;
52878;SDS011;38747;53.140;6.498;2023-03-01T03:57:59;114.80;;;14.93;;
52878;SDS011;38747;53.140;6.498;2023-03-01T04:00:33;134.23;;;12.70;;
52878;SDS011;38747;53.140;6.498;2023-03-01T06:26:07;13.83;;;7.50;;
52878;SDS011;38747;53.140;6.498;2023-03-01T06:28:33;14.15;;;7.70;;
52878;SDS011;38747;53.140;6.498;2023-03-01T06:31:00;15.20;;;7.85;;
52878;SDS011;38747;53.140;6.498;2023-03-01T06:33:26;13.40;;;7.53;;
52878;SDS011;38747;53.140;6.498;2023-03-01T06:35:55;14.73;;;7.97;;
52878;SDS011;38747;53.140;6.498;2023-03-01T06:40:51;13.50;;;7.15;;
52878;SDS011;38747;53.140;6.498;2023-03-01T06:43:19;13.73;;;7.13;;
52878;SDS011;38747;53.140;6.498;2023-03-01T06:45:46;14.15;;;7.65;;
52878;SDS011;38747;53.140;6.498;2023-03-01T06:48:12;14.43;;;8.00;;
52878;SDS011;38747;53.140;6.498;2023-03-01T06:50:38;14.10;;;7.60;;
52878;SDS011;38747;53.140;6.498;2023-03-01T06:53:04;13.85;;;7.40;;
52878;SDS011;38747;53.140;6.498;2023-03-01T06:55:30;13.50;;;7.30;;
52878;SDS011;38747;53.140;6.498;2023-03-01T06:58:00;15.95;;;8.13;;
52878;SDS011;38747;53.140;6.498;2023-03-01T07:00:27;14.70;;;7.43;;
52878;SDS011;38747;53.140;6.498;2023-03-01T07:02:53;14.47;;;7.63;;
52878;SDS011;38747;53.140;6.498;2023-03-01T07:05:19;13.00;;;7.03;;
52878;SDS011;38747;53.140;6.498;2023-03-01T07:07:46;14.25;;;7.30;;
52878;SDS011;38747;53.140;6.498;2023-03-01T07:10:19;16.23;;;7.88;;
52878;SDS011;38747;53.140;6.498;2023-03-01T07:12:45;14.73;;;8.30;;
52878;SDS011;38747;53.140;6.498;2023-03-01T07:15:19;16.30;;;8.40;;
52878;SDS011;38747;53.140;6.498;2023-03-01T07:17:46;15.93;;;8.40;;
52878;SDS011;38747;53.140;6.498;2023-03-01T07:20:16;15.27;;;8.18;;
52878;SDS011;38747;53.140;6.498;2023-03-01T07:22:43;16.63;;;9.18;;
52878;SDS011;38747;53.140;6.498;2023-03-01T07:25:10;17.33;;;9.48;;
52878;SDS011;38747;53.140;6.498;2023-03-01T07:27:37;20.37;;;9.87;;
52878;SDS011;38747;53.140;6.498;2023-03-01T07:30:03;18.67;;;10.05;;
52878;SDS011;38747;53.140;6.498;2023-03-01T07:32:32;18.85;;;9.85;;
52878;SDS011;38747;53.140;6.498;2023-03-01T07:35:03;18.20;;;10.27;;
52878;SDS011;38747;53.140;6.498;2023-03-01T07:37:40;19.60;;;10.25;;
52878;SDS011;38747;53.140;6.498;2023-03-01T07:40:23;18.03;;;10.07;;
52878;SDS011;38747;53.140;6.498;2023-03-01T07:42:56;20.30;;;10.50;;
52878;SDS011;38747;53.140;6.498;2023-03-01T07:45:57;19.20;;;10.23;;
52878;SDS011;38747;53.140;6.498;2023-03-01T07:48:29;20.83;;;10.70;;
52878;SDS011;38747;53.140;6.498;2023-03-01T07:51:02;21.63;;;10.75;;
52878;SDS011;38747;53.140;6.498;2023-03-01T07:53:30;19.37;;;10.33;;
52878;SDS011;38747;53.140;6.498;2023-03-01T07:56:09;20.95;;;10.52;;
52878;SDS011;38747;53.140;6.498;2023-03-01T07:58:37;21.10;;;10.55;;
52878;SDS011;38747;53.140;6.498;2023-03-01T08:01:05;19.10;;;10.73;;
52878;SDS011;38747;53.140;6.498;2023-03-01T08:03:33;19.48;;;10.82;;
52878;SDS011;38747;53.140;6.498;2023-03-01T08:06:00;20.53;;;11.23;;
52878;SDS011;38747;53.140;6.498;2023-03-01T08:08:27;19.48;;;11.02;;
52878;SDS011;38747;53.140;6.498;2023-03-01T08:10:56;21.13;;;11.23;;
52878;SDS011;38747;53.140;6.498;2023-03-01T08:13:22;20.48;;;12.32;;
52878;SDS011;38747;53.140;6.498;2023-03-01T08:15:48;24.63;;;13.13;;
52878;SDS011;38747;53.140;6.498;2023-03-01T08:18:15;27.63;;;14.38;;
52878;SDS011;38747;53.140;6.498;2023-03-01T08:20:41;24.90;;;13.95;;
52878;SDS011;38747;53.140;6.498;2023-03-01T08:23:07;29.67;;;15.10;;
52878;SDS011;38747;53.140;6.498;2023-03-01T08:25:33;26.43;;;14.03;;
52878;SDS011;38747;53.140;6.498;2023-03-01T08:27:58;31.70;;;14.87;;
52878;SDS011;38747;53.140;6.498;2023-03-01T08:30:24;27.73;;;14.95;;
52878;SDS011;38747;53.140;6.498;2023-03-01T08:32:50;31.67;;;15.53;;
52878;SDS011;38747;53.140;6.498;2023-03-01T08:35:16;29.33;;;14.60;;
52878;SDS011;38747;53.140;6.498;2023-03-01T08:37:42;28.85;;;15.77;;
52878;SDS011;38747;53.140;6.498;2023-03-01T08:40:08;26.10;;;15.07;;
52878;SDS011;38747;53.140;6.498;2023-03-01T08:42:35;30.45;;;15.07;;
52878;SDS011;38747;53.140;6.498;2023-03-01T08:45:01;30.05;;;15.45;;
52878;SDS011;38747;53.140;6.498;2023-03-01T08:47:28;29.90;;;15.75;;
52878;SDS011;38747;53.140;6.498;2023-03-01T08:49:54;31.00;;;16.27;;
52878;SDS011;38747;53.140;6.498;2023-03-01T08:52:19;32.00;;;17.13;;
52878;SDS011;38747;53.140;6.498;2023-03-01T08:54:47;34.70;;;18.17;;
52878;SDS011;38747;53.140;6.498;2023-03-01T08:57:14;43.40;;;19.83;;
52878;SDS011;38747;53.140;6.498;2023-03-01T08:59:39;36.63;;;19.40;;
52878;SDS011;38747;53.140;6.498;2023-03-01T09:02:08;38.93;;;18.27;;
52878;SDS011;38747;53.140;6.498;2023-03-01T09:04:37;41.13;;;19.50;;
52878;SDS011;38747;53.140;6.498;2023-03-01T09:07:03;40.05;;;19.23;;
52878;SDS011;38747;53.140;6.498;2023-03-01T09:09:29;44.00;;;20.33;;
52878;SDS011;38747;53.140;6.498;2023-03-01T09:11:54;42.35;;;20.63;;
52878;SDS011;38747;53.140;6.498;2023-03-01T09:14:20;50.80;;;22.00;;
52878;SDS011;38747;53.140;6.498;2023-03-01T09:16:46;51.15;;;22.67;;
52878;SDS011;38747;53.140;6.498;2023-03-01T09:19:12;48.03;;;23.07;;
52878;SDS011;38747;53.140;6.498;2023-03-01T09:21:38;43.08;;;21.80;;
52878;SDS011;38747;53.140;6.498;2023-03-01T09:24:03;43.40;;;22.15;;
52878;SDS011;38747;53.140;6.498;2023-03-01T09:26:29;41.87;;;20.60;;
52878;SDS011;38747;53.140;6.498;2023-03-01T09:28:55;41.27;;;20.00;;
52878;SDS011;38747;53.140;6.498;2023-03-01T09:31:22;42.78;;;21.17;;
52878;SDS011;38747;53.140;6.498;2023-03-01T09:33:50;43.65;;;22.00;;
52878;SDS011;38747;53.140;6.498;2023-03-01T09:36:18;39.83;;;20.93;;
52878;SDS011;38747;53.140;6.498;2023-03-01T09:38:46;42.67;;;21.23;;
52878;SDS011;38747;53.140;6.498;2023-03-01T09:41:31;38.60;;;20.13;;
52878;SDS011;38747;53.140;6.498;2023-03-01T09:44:03;40.75;;;21.15;;
52878;SDS011;38747;53.140;6.498;2023-03-01T09:46:38;34.80;;;19.05;;
52878;SDS011;38747;53.140;6.498;2023-03-01T09:49:10;35.53;;;18.03;;
52878;SDS011;38747;53.140;6.498;2023-03-01T09:51:42;31.95;;;16.92;;
52878;SDS011;38747;53.140;6.498;2023-03-01T09:54:13;29.60;;;16.83;;
52878;SDS011;38747;53.140;6.498;2023-03-01T09:56:40;30.33;;;17.00;;
52878;SDS011;38747;53.140;6.498;2023-03-01T10:04:46;31.90;;;16.75;;
52878;SDS011;38747;53.140;6.498;2023-03-01T10:10:07;29.90;;;16.70;;
52878;SDS011;38747;53.140;6.498;2023-03-01T10:12:35;31.20;;;16.60;;
52878;SDS011;38747;53.140;6.498;2023-03-01T10:15:06;28.40;;;16.13;;
52878;SDS011;38747;53.140;6.498;2023-03-01T10:20:16;25.98;;;14.90;;
52878;SDS011;38747;53.140;6.498;2023-03-01T10:22:49;26.70;;;12.87;;
52878;SDS011;38747;53.140;6.498;2023-03-01T10:27:55;22.05;;;11.98;;
52878;SDS011;38747;53.140;6.498;2023-03-01T10:30:38;22.20;;;12.02;;
52878;SDS011;38747;53.140;6.498;2023-03-01T10:33:20;21.02;;;11.88;;
52878;SDS011;38747;53.140;6.498;2023-03-01T10:35:50;21.93;;;11.07;;
52878;SDS011;38747;53.140;6.498;2023-03-01T10:38:17;22.27;;;11.77;;
52878;SDS011;38747;53.140;6.498;2023-03-01T10:40:57;22.55;;;11.18;;
52878;SDS011;38747;53.140;6.498;2023-03-01T10:43:24;21.23;;;11.68;;
52878;SDS011;38747;53.140;6.498;2023-03-01T10:45:51;20.23;;;11.45;;
52878;SDS011;38747;53.140;6.498;2023-03-01T10:53:33;20.52;;;10.82;;
52878;SDS011;38747;53.140;6.498;2023-03-01T10:56:06;21.02;;;11.10;;
52878;SDS011;38747;53.140;6.498;2023-03-01T10:58:39;18.20;;;9.70;;
52878;SDS011;38747;53.140;6.498;2023-03-01T11:03:41;17.00;;;9.38;;
52878;SDS011;38747;53.140;6.498;2023-03-01T11:08:40;17.00;;;9.83;;
52878;SDS011;38747;53.140;6.498;2023-03-01T11:13:57;18.10;;;9.65;;
52878;SDS011;38747;53.140;6.498;2023-03-01T11:21:34;18.87;;;10.47;;
52878;SDS011;38747;53.140;6.498;2023-03-01T11:24:06;20.38;;;10.23;;
52878;SDS011;38747;53.140;6.498;2023-03-01T11:26:38;19.17;;;10.40;;
52878;SDS011;38747;53.140;6.498;2023-03-01T11:29:18;20.65;;;10.75;;
52878;SDS011;38747;53.140;6.498;2023-03-01T11:31:56;18.88;;;9.57;;
52878;SDS011;38747;53.140;6.498;2023-03-01T11:34:45;17.67;;;8.90;;
52878;SDS011;38747;53.140;6.498;2023-03-01T11:37:20;17.77;;;10.15;;
52878;SDS011;38747;53.140;6.498;2023-03-01T11:43:04;21.75;;;10.90;;
52878;SDS011;38747;53.140;6.498;2023-03-01T11:57:17;20.67;;;11.05;;
52878;SDS011;38747;53.140;6.498;2023-03-01T12:00:11;15.90;;;9.70;;
52878;SDS011;38747;53.140;6.498;2023-03-01T12:02:49;17.83;;;10.23;;
52878;SDS011;38747;53.140;6.498;2023-03-01T12:05:49;18.25;;;10.07;;
52878;SDS011;38747;53.140;6.498;2023-03-01T12:08:35;18.15;;;10.05;;
52878;SDS011;38747;53.140;6.498;2023-03-01T12:11:21;18.38;;;9.98;;
52878;SDS011;38747;53.140;6.498;2023-03-01T12:14:05;19.13;;;8.82;;
52878;SDS011;38747;53.140;6.498;2023-03-01T12:16:40;17.80;;;9.70;;
52878;SDS011;38747;53.140;6.498;2023-03-01T12:33:30;14.45;;;8.30;;
52878;SDS011;38747;53.140;6.498;2023-03-01T12:51:11;16.33;;;8.60;;
52878;SDS011;38747;53.140;6.498;2023-03-01T12:56:11;14.05;;;8.38;;
52878;SDS011;38747;53.140;6.498;2023-03-01T13:12:42;15.30;;;8.53;;
52878;SDS011;38747;53.140;6.498;2023-03-01T13:17:52;16.45;;;9.13;;
52878;SDS011;38747;53.140;6.498;2023-03-01T13:20:45;20.13;;;9.50;;
52878;SDS011;38747;53.140;6.498;2023-03-01T13:31:01;17.02;;;9.38;;
52878;SDS011;38747;53.140;6.498;2023-03-01T13:35:54;16.90;;;8.87;;
52878;SDS011;38747;53.140;6.498;2023-03-01T13:47:17;18.87;;;10.10;;
52878;SDS011;38747;53.140;6.498;2023-03-01T13:49:56;17.65;;;9.63;;
52878;SDS011;38747;53.140;6.498;2023-03-01T13:52:40;16.75;;;9.35;;
52878;SDS011;38747;53.140;6.498;2023-03-01T13:57:43;17.20;;;9.93;;
52878;SDS011;38747;53.140;6.498;2023-03-01T14:05:37;16.88;;;9.55;;
52878;SDS011;38747;53.140;6.498;2023-03-01T14:08:04;17.20;;;9.82;;
52878;SDS011;38747;53.140;6.498;2023-03-01T14:19:09;18.38;;;9.02;;
52878;SDS011;38747;53.140;6.498;2023-03-01T14:21:45;19.17;;;9.13;;
52878;SDS011;38747;53.140;6.498;2023-03-01T14:24:18;16.58;;;9.13;;
52878;SDS011;38747;53.140;6.498;2023-03-01T14:26:46;17.73;;;9.80;;
52878;SDS011;38747;53.140;6.498;2023-03-01T14:29:27;16.80;;;9.98;;
52878;SDS011;38747;53.140;6.498;2023-03-01T14:32:08;19.45;;;9.77;;
52878;SDS011;38747;53.140;6.498;2023-03-01T14:34:45;18.52;;;10.18;;
52878;SDS011;38747;53.140;6.498;2023-03-01T14:37:31;17.38;;;10.07;;
52878;SDS011;38747;53.140;6.498;2023-03-01T14:39:59;17.53;;;9.77;;
52878;SDS011;38747;53.140;6.498;2023-03-01T14:42:28;19.83;;;9.85;;
52878;SDS011;38747;53.140;6.498;2023-03-01T14:44:59;17.98;;;10.02;;
52878;SDS011;38747;53.140;6.498;2023-03-01T14:47:28;16.95;;;10.20;;
52878;SDS011;38747;53.140;6.498;2023-03-01T14:50:06;18.90;;;10.07;;
52878;SDS011;38747;53.140;6.498;2023-03-01T14:52:37;19.60;;;10.57;;
52878;SDS011;38747;53.140;6.498;2023-03-01T14:55:20;18.38;;;10.25;;
52878;SDS011;38747;53.140;6.498;2023-03-01T14:57:51;19.83;;;10.75;;
52878;SDS011;38747;53.140;6.498;2023-03-01T15:00:27;20.33;;;10.65;;
52878;SDS011;38747;53.140;6.498;2023-03-01T15:02:55;21.55;;;11.27;;
52878;SDS011;38747;53.140;6.498;2023-03-01T15:05:30;19.83;;;10.50;;
52878;SDS011;38747;53.140;6.498;2023-03-01T15:07:58;19.80;;;11.25;;
52878;SDS011;38747;53.140;6.498;2023-03-01T15:10:27;20.00;;;10.63;;
52878;SDS011;38747;53.140;6.498;2023-03-01T15:12:55;20.83;;;10.60;;
52878;SDS011;38747;53.140;6.498;2023-03-01T15:15:22;18.73;;;11.10;;
52878;SDS011;38747;53.140;6.498;2023-03-01T15:18:28;19.33;;;10.77;;
52878;SDS011;38747;53.140;6.498;2023-03-01T15:20:50;19.08;;;10.52;;
52878;SDS011;38747;53.140;6.498;2023-03-01T15:23:18;18.50;;;10.57;;
52878;SDS011;38747;53.140;6.498;2023-03-01T15:25:55;20.80;;;10.63;;
52878;SDS011;38747;53.140;6.498;2023-03-01T15:28:26;19.02;;;10.70;;
52878;SDS011;38747;53.140;6.498;2023-03-01T15:31:13;20.10;;;10.87;;
52878;SDS011;38747;53.140;6.498;2023-03-01T15:33:46;21.35;;;11.05;;
52878;SDS011;38747;53.140;6.498;2023-03-01T15:39:27;19.73;;;11.07;;
52878;SDS011;38747;53.140;6.498;2023-03-01T15:41:55;20.02;;;11.13;;
52878;SDS011;38747;53.140;6.498;2023-03-01T15:44:28;19.58;;;10.77;;
52878;SDS011;38747;53.140;6.498;2023-03-01T15:46:56;20.38;;;10.88;;
52878;SDS011;38747;53.140;6.498;2023-03-01T15:52:12;18.52;;;10.50;;
52878;SDS011;38747;53.140;6.498;2023-03-01T15:54:44;19.38;;;10.18;;
52878;SDS011;38747;53.140;6.498;2023-03-01T15:57:14;19.70;;;11.02;;
52878;SDS011;38747;53.140;6.498;2023-03-01T15:59:40;21.42;;;10.98;;
52878;SDS011;38747;53.140;6.498;2023-03-01T16:02:10;17.40;;;10.37;;
52878;SDS011;38747;53.140;6.498;2023-03-01T16:04:37;19.88;;;11.07;;
52878;SDS011;38747;53.140;6.498;2023-03-01T16:07:03;20.30;;;10.93;;
52878;SDS011;38747;53.140;6.498;2023-03-01T16:09:29;19.23;;;10.77;;
52878;SDS011;38747;53.140;6.498;2023-03-01T16:11:55;20.23;;;10.80;;
52878;SDS011;38747;53.140;6.498;2023-03-01T16:14:20;20.95;;;11.07;;
52878;SDS011;38747;53.140;6.498;2023-03-01T16:16:46;20.57;;;10.80;;
52878;SDS011;38747;53.140;6.498;2023-03-01T16:19:17;20.50;;;10.68;;
52878;SDS011;38747;53.140;6.498;2023-03-01T16:21:42;18.10;;;10.33;;
52878;SDS011;38747;53.140;6.498;2023-03-01T16:24:11;19.90;;;11.07;;
52878;SDS011;38747;53.140;6.498;2023-03-01T16:26:37;21.58;;;11.55;;
52878;SDS011;38747;53.140;6.498;2023-03-01T16:29:03;18.80;;;10.65;;
52878;SDS011;38747;53.140;6.498;2023-03-01T16:31:29;19.20;;;10.67;;
52878;SDS011;38747;53.140;6.498;2023-03-01T16:33:56;20.98;;;11.70;;
52878;SDS011;38747;53.140;6.498;2023-03-01T16:36:23;18.80;;;10.68;;
52878;SDS011;38747;53.140;6.498;2023-03-01T16:38:53;21.10;;;10.77;;
52878;SDS011;38747;53.140;6.498;2023-03-01T16:41:20;20.85;;;11.15;;
52878;SDS011;38747;53.140;6.498;2023-03-01T16:43:47;19.60;;;11.27;;
52878;SDS011;38747;53.140;6.498;2023-03-01T16:46:14;21.02;;;11.07;;
52878;SDS011;38747;53.140;6.498;2023-03-01T16:48:41;21.25;;;11.13;;
52878;SDS011;38747;53.140;6.498;2023-03-01T16:51:07;22.27;;;11.33;;
52878;SDS011;38747;53.140;6.498;2023-03-01T16:53:33;19.42;;;10.25;;
52878;SDS011;38747;53.140;6.498;2023-03-01T16:56:04;20.38;;;11.50;;
52878;SDS011;38747;53.140;6.498;2023-03-01T16:58:32;21.45;;;11.38;;
52878;SDS011;38747;53.140;6.498;2023-03-01T17:01:03;20.33;;;10.63;;
52878;SDS011;38747;53.140;6.498;2023-03-01T17:03:37;22.43;;;11.07;;
52878;SDS011;38747;53.140;6.498;2023-03-01T17:06:04;20.30;;;11.05;;
52878;SDS011;38747;53.140;6.498;2023-03-01T17:08:32;19.15;;;10.80;;
52878;SDS011;38747;53.140;6.498;2023-03-01T17:11:05;22.50;;;11.68;;
52878;SDS011;38747;53.140;6.498;2023-03-01T17:13:36;22.75;;;11.52;;
52878;SDS011;38747;53.140;6.498;2023-03-01T17:16:07;21.30;;;11.07;;
52878;SDS011;38747;53.140;6.498;2023-03-01T17:18:35;20.33;;;10.90;;
52878;SDS011;38747;53.140;6.498;2023-03-01T17:21:01;22.75;;;11.30;;
52878;SDS011;38747;53.140;6.498;2023-03-01T17:23:28;22.98;;;11.88;;
52878;SDS011;38747;53.140;6.498;2023-03-01T17:25:54;21.60;;;11.85;;
52878;SDS011;38747;53.140;6.498;2023-03-01T17:28:24;20.20;;;11.13;;
52878;SDS011;38747;53.140;6.498;2023-03-01T17:30:52;19.65;;;10.50;;
52878;SDS011;38747;53.140;6.498;2023-03-01T17:33:18;19.55;;;10.68;;
52878;SDS011;38747;53.140;6.498;2023-03-01T17:35:45;18.57;;;10.33;;
52878;SDS011;38747;53.140;6.498;2023-03-01T17:38:12;19.40;;;10.10;;
52878;SDS011;38747;53.140;6.498;2023-03-01T17:40:39;21.83;;;11.00;;
52878;SDS011;38747;53.140;6.498;2023-03-01T17:43:06;20.58;;;11.07;;
52878;SDS011;38747;53.140;6.498;2023-03-01T17:45:35;22.58;;;10.63;;
52878;SDS011;38747;53.140;6.498;2023-03-01T17:48:01;17.90;;;9.93;;
52878;SDS011;38747;53.140;6.498;2023-03-01T17:50:27;19.15;;;10.70;;
52878;SDS011;38747;53.140;6.498;2023-03-01T17:52:53;19.90;;;11.02;;
52878;SDS011;38747;53.140;6.498;2023-03-01T17:55:19;18.23;;;9.57;;
52878;SDS011;38747;53.140;6.498;2023-03-01T17:57:46;17.83;;;9.82;;
52878;SDS011;38747;53.140;6.498;2023-03-01T18:00:12;18.88;;;9.70;;
52878;SDS011;38747;53.140;6.498;2023-03-01T18:02:40;18.88;;;10.55;;
52878;SDS011;38747;53.140;6.498;2023-03-01T18:05:06;17.65;;;10.30;;
52878;SDS011;38747;53.140;6.498;2023-03-01T18:07:32;19.37;;;10.13;;
52878;SDS011;38747;53.140;6.498;2023-03-01T18:09:58;19.40;;;10.32;;
52878;SDS011;38747;53.140;6.498;2023-03-01T18:12:24;19.50;;;10.52;;
52878;SDS011;38747;53.140;6.498;2023-03-01T18:14:50;19.93;;;10.80;;
52878;SDS011;38747;53.140;6.498;2023-03-01T18:17:21;18.85;;;10.57;;
52878;SDS011;38747;53.140;6.498;2023-03-01T18:19:47;20.45;;;10.80;;
52878;SDS011;38747;53.140;6.498;2023-03-01T18:22:13;19.90;;;10.63;;
52878;SDS011;38747;53.140;6.498;2023-03-01T18:24:39;21.98;;;11.45;;
52878;SDS011;38747;53.140;6.498;2023-03-01T18:27:05;21.30;;;10.85;;
52878;SDS011;38747;53.140;6.498;2023-03-01T18:29:31;20.43;;;11.30;;
52878;SDS011;38747;53.140;6.498;2023-03-01T18:31:56;21.63;;;12.30;;
52878;SDS011;38747;53.140;6.498;2023-03-01T18:34:22;22.90;;;11.80;;
52878;SDS011;38747;53.140;6.498;2023-03-01T18:36:48;24.23;;;12.82;;
52878;SDS011;38747;53.140;6.498;2023-03-01T18:39:16;23.98;;;11.90;;
52878;SDS011;38747;53.140;6.498;2023-03-01T18:41:43;22.65;;;12.10;;
52878;SDS011;38747;53.140;6.498;2023-03-01T18:44:09;21.57;;;12.47;;
52878;SDS011;38747;53.140;6.498;2023-03-01T18:46:35;22.63;;;12.40;;
52878;SDS011;38747;53.140;6.498;2023-03-01T18:49:02;22.92;;;12.05;;
52878;SDS011;38747;53.140;6.498;2023-03-01T18:51:28;22.33;;;12.83;;
52878;SDS011;38747;53.140;6.498;2023-03-01T18:53:54;21.23;;;11.85;;
52878;SDS011;38747;53.140;6.498;2023-03-01T18:56:22;21.30;;;12.13;;
52878;SDS011;38747;53.140;6.498;2023-03-01T18:58:49;21.30;;;11.55;;
52878;SDS011;38747;53.140;6.498;2023-03-01T19:01:19;20.10;;;11.90;;
52878;SDS011;38747;53.140;6.498;2023-03-01T19:03:48;21.63;;;11.75;;
52878;SDS011;38747;53.140;6.498;2023-03-01T19:06:13;20.63;;;11.65;;
52878;SDS011;38747;53.140;6.498;2023-03-01T19:08:39;22.20;;;11.50;;
52878;SDS011;38747;53.140;6.498;2023-03-01T19:11:06;21.00;;;11.85;;
52878;SDS011;38747;53.140;6.498;2023-03-01T19:13:34;20.27;;;10.88;;
52878;SDS011;38747;53.140;6.498;2023-03-01T19:18:53;19.93;;;11.67;;
52878;SDS011;38747;53.140;6.498;2023-03-01T19:21:27;23.95;;;11.52;;
52878;SDS011;38747;53.140;6.498;2023-03-01T19:23:55;22.38;;;11.50;;
52878;SDS011;38747;53.140;6.498;2023-03-01T19:26:23;27.17;;;13.23;;
52878;SDS011;38747;53.140;6.498;2023-03-01T19:28:50;24.58;;;12.35;;
52878;SDS011;38747;53.140;6.498;2023-03-01T19:31:17;27.10;;;13.40;;
52878;SDS011;38747;53.140;6.498;2023-03-01T19:33:45;29.25;;;14.55;;
52878;SDS011;38747;53.140;6.498;2023-03-01T19:36:11;30.42;;;15.77;;
52878;SDS011;38747;53.140;6.498;2023-03-01T19:38:38;31.55;;;15.65;;
52878;SDS011;38747;53.140;6.498;2023-03-01T19:41:05;28.20;;;15.15;;